createdAt,value
2018-11-02T00:02:01.685Z,8.71
2018-11-02T00:05:25.435Z,8.96
2018-11-02T00:08:42.050Z,8.92
2018-11-02T00:11:58.704Z,8.78
2018-11-02T00:15:14.601Z,8.93
2018-11-02T00:18:31.226Z,9.03
2018-11-02T00:21:36.127Z,8.97
2018-11-02T00:24:41.067Z,8.76
2018-11-02T00:28:04.821Z,8.58
2018-11-02T00:31:24.087Z,8.82
2018-11-02T00:37:58.730Z,9.03
2018-11-02T00:41:15.066Z,9.01
2018-11-02T00:44:31.212Z,9.08
2018-11-02T00:47:36.157Z,9.09
2018-11-02T00:51:00.026Z,9.19
2018-11-02T00:54:23.781Z,9.24
2018-11-02T00:57:39.615Z,9.10
2018-11-02T01:00:56.137Z,8.95
2018-11-02T01:04:01.117Z,9.07
2018-11-02T01:07:06.611Z,9.11
2018-11-02T01:10:30.330Z,9.22
2018-11-02T01:13:46.696Z,9.16
2018-11-02T01:17:02.709Z,9.22
2018-11-02T01:23:33.247Z,9.33
2018-11-02T01:26:49.155Z,9.38
2018-11-02T01:30:05.688Z,9.27
2018-11-02T01:33:10.587Z,9.42
2018-11-02T01:36:15.397Z,9.41
2018-11-02T01:39:39.171Z,9.51
2018-11-02T01:43:01.465Z,9.47
2018-11-02T01:46:00.816Z,9.30
2018-11-02T01:52:30.507Z,9.08
2018-11-02T01:55:46.287Z,9.20
2018-11-02T01:59:01.953Z,9.32
2018-11-02T02:02:18.570Z,9.23
2018-11-02T02:05:34.291Z,9.24
2018-11-02T02:12:11.313Z,8.81
2018-11-02T02:15:27.227Z,8.74
2018-11-02T02:18:43.872Z,8.78
2018-11-02T02:21:37.478Z,8.72
2018-11-02T02:25:01.453Z,8.61
2018-11-02T02:28:06.350Z,8.65
2018-11-02T02:31:11.286Z,8.34
2018-11-02T02:34:35.019Z,8.06
2018-11-02T02:37:59.105Z,7.92
2018-11-02T02:41:14.802Z,7.90
2018-11-02T02:44:19.877Z,7.78
2018-11-02T02:47:43.587Z,7.78
2018-11-02T02:50:48.713Z,7.74
2018-11-02T02:57:17.409Z,8.09
2018-11-02T03:00:54.881Z,8.02
2018-11-02T03:03:46.422Z,8.33
2018-11-02T03:06:51.297Z,8.53
2018-11-02T03:10:15.306Z,8.75
2018-11-02T03:13:39.052Z,9.06
2018-11-02T03:16:54.757Z,9.11
2018-11-02T03:20:12.111Z,9.23
2018-11-02T03:23:28.627Z,9.29
2018-11-02T03:26:44.931Z,9.35
2018-11-02T03:29:49.819Z,9.47
2018-11-02T03:32:54.657Z,9.57
2018-11-02T03:36:18.382Z,9.55
2018-11-02T03:39:42.048Z,9.70
2018-11-02T03:43:00.868Z,9.70
2018-11-02T03:46:06.096Z,9.64
2018-11-02T03:49:29.961Z,9.55
2018-11-02T03:52:53.688Z,9.78
2018-11-02T03:56:10.306Z,9.78
2018-11-02T03:59:26.617Z,9.82
2018-11-02T04:02:31.487Z,9.80
2018-11-02T04:05:55.152Z,9.75
2018-11-02T04:09:11.037Z,9.86
2018-11-02T04:12:27.542Z,9.82
2018-11-02T04:15:32.431Z,9.84
2018-11-02T04:18:37.674Z,9.92
2018-11-02T04:22:01.387Z,9.85
2018-11-02T04:25:06.498Z,9.88
2018-11-02T04:28:30.234Z,9.85
2018-11-02T04:31:54.003Z,10.01
2018-11-02T04:35:10.235Z,9.94
2018-11-02T04:38:15.057Z,9.91
2018-11-02T04:41:31.698Z,10.03
2018-11-02T04:44:24.797Z,10.07
2018-11-02T04:47:48.522Z,10.04
2018-11-02T04:51:12.432Z,10.00
2018-11-02T04:54:28.832Z,10.01
2018-11-02T04:57:45.194Z,9.96
2018-11-02T05:01:01.181Z,10.00
2018-11-02T05:04:06.380Z,10.06
2018-11-02T05:07:30.094Z,10.04
2018-11-02T05:10:53.879Z,9.99
2018-11-02T05:14:09.583Z,9.99
2018-11-02T05:17:25.393Z,10.05
2018-11-02T05:20:43.696Z,10.00
2018-11-02T05:23:54.143Z,10.05
2018-11-02T05:27:10.363Z,9.94
2018-11-02T05:30:27.131Z,9.88
2018-11-02T05:33:43.618Z,9.88
2018-11-02T05:36:59.848Z,9.89
2018-11-02T05:40:16.323Z,9.97
2018-11-02T05:43:40.039Z,10.04
2018-11-02T05:47:03.973Z,10.06
2018-11-02T05:50:20.201Z,9.98
2018-11-02T05:53:25.149Z,10.03
2018-11-02T05:56:30.045Z,10.03
2018-11-02T05:59:53.772Z,10.10
2018-11-02T06:03:17.474Z,10.11
2018-11-02T06:06:33.672Z,10.19
2018-11-02T06:09:49.014Z,10.12
2018-11-02T06:12:53.933Z,10.20
2018-11-02T06:15:58.773Z,10.13
2018-11-02T06:19:22.873Z,10.11
2018-11-02T06:22:46.668Z,10.19
2018-11-02T06:26:03.679Z,10.15
2018-11-02T06:29:08.587Z,10.14
2018-11-02T06:32:13.737Z,10.16
2018-11-02T06:35:37.634Z,10.10
2018-11-02T06:38:42.612Z,10.06
2018-11-02T06:41:47.354Z,10.05
2018-11-02T06:45:11.883Z,10.03
2018-11-02T06:48:52.852Z,10.06
2018-11-02T06:51:59.424Z,9.93
2018-11-02T06:55:15.660Z,9.85
2018-11-02T06:58:32.059Z,9.75
2018-11-02T07:01:47.813Z,9.69
2018-11-02T07:05:03.810Z,9.56
2018-11-02T07:08:20.167Z,9.54
2018-11-02T07:11:24.960Z,9.56
2018-11-02T07:14:29.903Z,9.51
2018-11-02T07:17:34.838Z,9.57
2018-11-02T07:20:58.550Z,9.62
2018-11-02T07:24:22.235Z,9.61
2018-11-02T07:27:38.116Z,9.52
2018-11-02T07:30:54.632Z,9.52
2018-11-02T07:34:11.273Z,9.50
2018-11-02T07:37:27.614Z,9.51
2018-11-02T07:40:32.618Z,9.55
2018-11-02T07:43:37.505Z,9.69
2018-11-02T07:46:56.390Z,9.68
2018-11-02T07:49:47.598Z,9.78
2018-11-02T07:52:52.369Z,9.81
2018-11-02T07:56:16.062Z,9.72
2018-11-02T07:59:39.851Z,9.79
2018-11-02T08:02:55.780Z,9.77
2018-11-02T08:06:11.710Z,9.83
2018-11-02T08:09:16.639Z,9.89
2018-11-02T08:12:40.357Z,9.80
2018-11-02T08:16:04.032Z,9.75
2018-11-02T08:19:20.046Z,9.68
2018-11-02T08:22:36.482Z,9.64
2018-11-02T08:25:52.807Z,9.61
2018-11-02T08:29:08.811Z,9.66
2018-11-02T08:32:25.285Z,9.68
2018-11-02T08:35:41.902Z,9.74
2018-11-02T08:38:46.877Z,9.83
2018-11-02T08:41:51.747Z,9.88
2018-11-02T08:45:15.466Z,9.98
2018-11-02T08:48:32.229Z,10.16
2018-11-02T08:51:48.542Z,10.24
2018-11-02T08:55:13.686Z,10.33
2018-11-02T08:58:16.719Z,10.56
2018-11-02T09:01:21.415Z,10.49
2018-11-02T09:04:45.186Z,10.42
2018-11-02T09:08:21.037Z,10.50
2018-11-02T09:11:25.742Z,10.58
2018-11-02T09:14:44.187Z,10.66
2018-11-02T09:17:59.861Z,10.56
2018-11-02T09:21:15.816Z,10.79
2018-11-02T09:24:32.517Z,10.73
2018-11-02T09:27:48.626Z,10.93
2018-11-02T09:31:04.280Z,10.85
2018-11-02T09:34:20.307Z,11.07
2018-11-02T09:37:43.857Z,11.10
2018-11-02T09:41:07.633Z,10.99
2018-11-02T09:44:24.256Z,11.19
2018-11-02T09:47:41.641Z,11.05
2018-11-02T09:50:56.493Z,11.18
2018-11-02T09:54:12.421Z,11.16
2018-11-02T09:57:28.809Z,11.27
2018-11-02T10:00:45.435Z,11.20
2018-11-02T10:04:01.973Z,11.09
2018-11-02T10:07:18.568Z,11.10
2018-11-02T10:13:51.364Z,11.24
2018-11-02T10:17:08.107Z,11.26
2018-11-02T10:20:23.849Z,11.23
2018-11-02T10:23:40.637Z,11.33
2018-11-02T10:26:56.361Z,11.03
2018-11-02T10:30:13.914Z,11.20
2018-11-02T10:33:30.419Z,11.39
2018-11-02T10:36:36.198Z,11.39
2018-11-02T10:39:41.103Z,11.36
2018-11-02T10:43:08.714Z,11.33
2018-11-02T10:46:32.443Z,11.25
2018-11-02T10:49:37.358Z,11.24
2018-11-02T10:53:01.143Z,11.05
2018-11-02T10:56:17.037Z,11.17
2018-11-02T10:59:21.966Z,11.05
2018-11-02T11:02:45.433Z,11.15
2018-11-02T11:05:50.373Z,11.34
2018-11-02T11:09:14.463Z,11.37
2018-11-02T11:12:31.197Z,11.46
2018-11-02T11:15:46.811Z,11.44
2018-11-02T11:19:03.228Z,11.68
2018-11-02T11:22:19.759Z,12.17
2018-11-02T11:25:35.912Z,12.33
2018-11-02T11:28:52.235Z,11.75
2018-11-02T11:32:08.971Z,12.07
2018-11-02T11:35:24.711Z,11.93
2018-11-02T11:38:41.281Z,12.25
2018-11-02T11:42:04.738Z,12.26
2018-11-02T11:45:28.542Z,12.08
2018-11-02T11:48:44.222Z,12.15
2018-11-02T11:52:00.363Z,12.15
2018-11-02T11:55:17.702Z,12.44
2018-11-02T11:58:33.486Z,12.00
2018-11-02T12:01:53.367Z,11.85
2018-11-02T12:05:09.526Z,11.68
2018-11-02T12:08:25.253Z,11.09
2018-11-02T12:11:42.727Z,10.65
2018-11-02T12:14:58.788Z,10.37
2018-11-02T12:18:15.018Z,10.45
2018-11-02T12:21:31.661Z,10.39
2018-11-02T12:24:47.702Z,10.44
2018-11-02T12:27:53.218Z,10.24
2018-11-02T12:30:58.317Z,10.10
2018-11-02T12:34:03.145Z,10.04
2018-11-02T12:37:08.031Z,10.11
2018-11-02T12:40:31.897Z,10.04
2018-11-02T12:43:56.188Z,10.16
2018-11-02T12:47:12.466Z,10.33
2018-11-02T12:50:36.416Z,10.05
2018-11-02T12:53:41.249Z,10.00
2018-11-02T12:57:04.964Z,9.93
2018-11-02T13:00:29.338Z,9.90
2018-11-02T13:03:45.675Z,9.96
2018-11-02T13:06:50.625Z,9.99
2018-11-02T13:10:15.519Z,9.84
2018-11-02T13:16:55.972Z,9.75
2018-11-02T13:20:12.758Z,9.74
2018-11-02T13:23:29.243Z,9.69
2018-11-02T13:26:45.818Z,9.85
2018-11-02T13:29:50.683Z,9.71
2018-11-02T13:32:55.538Z,9.90
2018-11-02T13:36:33.789Z,10.12
2018-11-02T13:39:43.258Z,10.26
2018-11-02T13:42:59.030Z,10.24
2018-11-02T13:46:03.823Z,10.19
2018-11-02T13:49:27.598Z,10.25
2018-11-02T13:52:32.804Z,10.25
2018-11-02T13:55:56.549Z,10.27
2018-11-02T13:59:01.497Z,10.35
2018-11-02T14:02:06.849Z,10.49
2018-11-02T14:05:30.580Z,10.57
2018-11-02T14:08:54.463Z,10.63
2018-11-02T14:12:18.259Z,10.58
2018-11-02T14:15:23.162Z,10.75
2018-11-02T14:18:28.148Z,10.66
2018-11-02T14:21:32.913Z,10.43
2018-11-02T14:24:56.625Z,10.21
2018-11-02T14:28:13.214Z,10.23
2018-11-02T14:31:29.114Z,10.20
2018-11-02T14:38:04.289Z,10.01
2018-11-02T14:41:20.700Z,10.09
2018-11-02T14:44:36.556Z,9.97
2018-11-02T14:47:53.234Z,9.89
2018-11-02T14:50:58.118Z,9.74
2018-11-02T14:54:04.001Z,9.80
2018-11-02T14:57:08.877Z,9.71
2018-11-02T15:00:13.785Z,9.70
2018-11-02T15:03:37.573Z,9.62
2018-11-02T15:06:42.438Z,9.51
2018-11-02T15:09:47.337Z,9.49
2018-11-02T15:13:22.884Z,9.38
2018-11-02T15:16:27.435Z,9.38
2018-11-02T15:19:32.729Z,9.29
2018-11-02T15:22:56.508Z,9.26
2018-11-02T15:26:20.266Z,9.15
2018-11-02T15:29:36.539Z,9.17
2018-11-02T15:32:52.471Z,9.17
2018-11-02T15:35:57.347Z,9.04
2018-11-02T15:39:21.060Z,9.03
2018-11-02T15:42:59.496Z,8.94
2018-11-02T15:46:00.643Z,8.85
2018-11-02T15:49:16.546Z,8.88
2018-11-02T15:52:32.427Z,8.85
2018-11-02T15:55:48.544Z,8.83
2018-11-02T15:59:04.305Z,8.77
2018-11-02T16:02:20.147Z,8.75
2018-11-02T16:05:35.908Z,8.66
2018-11-02T16:08:40.901Z,8.68
2018-11-02T16:12:04.675Z,8.61
2018-11-02T16:15:28.369Z,8.61
2018-11-02T16:18:52.144Z,8.59
2018-11-02T16:21:57.015Z,8.57
2018-11-02T16:25:20.771Z,8.52
2018-11-02T16:28:37.144Z,8.49
2018-11-02T16:31:53.515Z,8.44
2018-11-02T16:35:09.507Z,8.32
2018-11-02T16:38:25.282Z,8.22
2018-11-02T16:41:41.922Z,8.23
2018-11-02T16:44:58.326Z,8.21
2018-11-02T16:48:15.131Z,8.18
2018-11-02T16:51:19.982Z,8.15
2018-11-02T16:54:25.035Z,8.15
2018-11-02T16:57:41.664Z,8.12
2018-11-02T17:00:34.850Z,8.08
2018-11-02T17:03:58.665Z,8.14
2018-11-02T17:10:34.378Z,8.09
2018-11-02T17:13:50.546Z,8.12
2018-11-02T17:17:06.397Z,8.09
2018-11-02T17:20:23.131Z,8.11
2018-11-02T17:23:39.461Z,8.12
2018-11-02T17:26:44.431Z,8.22
2018-11-02T17:29:49.396Z,8.31
2018-11-02T17:32:54.244Z,8.34
2018-11-02T17:36:18.118Z,8.30
2018-11-02T17:39:34.501Z,8.27
2018-11-02T17:42:50.448Z,8.28
2018-11-02T17:46:07.176Z,8.27
2018-11-02T17:49:23.936Z,8.13
2018-11-02T17:52:40.642Z,8.16
2018-11-02T17:55:56.537Z,8.15
2018-11-02T17:59:12.566Z,8.08
2018-11-02T18:02:29.264Z,7.87
2018-11-02T18:05:48.281Z,7.72
2018-11-02T18:09:09.891Z,7.69
2018-11-02T18:12:33.387Z,7.71
2018-11-02T18:15:26.635Z,7.61
2018-11-02T18:18:50.466Z,7.47
2018-11-02T18:22:14.200Z,7.34
2018-11-02T18:25:29.916Z,7.38
2018-11-02T18:28:46.185Z,7.28
2018-11-02T18:32:02.167Z,7.14
2018-11-02T18:35:18.061Z,7.02
2018-11-02T18:38:34.803Z,7.29
2018-11-02T18:41:51.157Z,7.29
2018-11-02T18:45:06.887Z,7.44
2018-11-02T18:48:23.600Z,7.48
2018-11-02T18:51:40.527Z,7.48
2018-11-02T18:54:57.051Z,7.67
2018-11-02T18:58:13.128Z,7.63
2018-11-02T19:01:29.539Z,7.65
2018-11-02T19:04:45.952Z,7.70
2018-11-02T19:08:01.743Z,7.77
2018-11-02T19:11:17.652Z,7.84
2018-11-02T19:14:34.124Z,7.86
2018-11-02T19:17:50.768Z,7.85
2018-11-02T19:21:07.306Z,7.79
2018-11-02T19:24:23.925Z,7.87
2018-11-02T19:27:29.094Z,7.88
2018-11-02T19:30:52.756Z,7.92
2018-11-02T19:34:09.106Z,7.90
2018-11-02T19:37:25.709Z,7.88
2018-11-02T19:40:49.551Z,7.90
2018-11-02T19:44:05.714Z,7.96
2018-11-02T19:47:22.263Z,7.92
2018-11-02T19:50:38.304Z,7.90
2018-11-02T19:53:54.917Z,7.85
2018-11-02T19:57:11.558Z,7.82
2018-11-02T20:00:27.538Z,7.76
2018-11-02T20:03:44.253Z,7.68
2018-11-02T20:07:00.206Z,7.56
2018-11-02T20:10:17.602Z,7.44
2018-11-02T20:13:33.668Z,7.39
2018-11-02T20:16:49.534Z,7.38
2018-11-02T20:20:05.370Z,7.25
2018-11-02T20:23:21.374Z,7.10
2018-11-02T20:26:37.185Z,6.95
2018-11-02T20:29:53.176Z,7.01
2018-11-02T20:33:09.741Z,6.87
2018-11-02T20:36:33.351Z,6.72
2018-11-02T20:39:57.094Z,6.61
2018-11-02T20:43:13.244Z,6.59
2018-11-02T20:46:29.063Z,6.54
2018-11-02T20:49:45.454Z,6.40
2018-11-02T20:53:01.268Z,6.36
2018-11-02T20:56:17.214Z,6.39
2018-11-02T20:59:33.064Z,6.35
2018-11-02T21:02:55.779Z,6.52
2018-11-02T21:06:11.509Z,6.43
2018-11-02T21:09:28.649Z,6.50
2018-11-02T21:12:44.129Z,6.52
2018-11-02T21:16:00.734Z,6.31
2018-11-02T21:19:16.632Z,6.27
2018-11-02T21:22:33.264Z,6.15
2018-11-02T21:25:48.992Z,6.11
2018-11-02T21:29:05.700Z,6.04
2018-11-02T21:32:21.652Z,6.12
2018-11-02T21:38:54.630Z,6.01
2018-11-02T21:42:11.110Z,5.89
2018-11-02T21:45:27.588Z,5.72
2018-11-02T21:48:43.392Z,5.69
2018-11-02T21:51:59.585Z,5.84
2018-11-02T21:55:16.039Z,5.87
2018-11-02T21:58:31.927Z,5.96
2018-11-02T22:01:36.729Z,5.77
2018-11-02T22:05:00.474Z,5.74
2018-11-02T22:08:16.193Z,5.77
2018-11-02T22:11:21.211Z,5.79
2018-11-02T22:14:44.928Z,5.86
2018-11-02T22:18:08.816Z,5.84
2018-11-02T22:21:27.359Z,5.72
2018-11-02T22:24:43.915Z,5.78
2018-11-02T22:27:59.820Z,5.59
2018-11-02T22:31:16.362Z,5.48
2018-11-02T22:34:39.749Z,5.46
2018-11-02T22:38:03.548Z,5.37
2018-11-02T22:41:20.099Z,5.19
2018-11-02T22:44:24.973Z,5.07
2018-11-02T22:47:30.019Z,5.09
2018-11-02T22:50:46.463Z,5.13
2018-11-02T22:54:10.729Z,5.28
2018-11-02T22:57:15.045Z,5.13
2018-11-02T23:00:31.678Z,5.18
2018-11-02T23:03:36.529Z,5.02
2018-11-02T23:06:41.506Z,5.04
2018-11-02T23:10:05.850Z,4.87
2018-11-02T23:13:10.719Z,5.00
2018-11-02T23:16:15.608Z,4.83
2018-11-02T23:19:39.349Z,4.62
2018-11-02T23:22:55.208Z,4.56
2018-11-02T23:26:00.119Z,4.65
2018-11-02T23:29:23.917Z,4.63
2018-11-02T23:32:47.823Z,4.58
2018-11-02T23:36:11.567Z,4.71
2018-11-02T23:39:27.734Z,4.64
2018-11-02T23:42:44.335Z,4.42
2018-11-02T23:45:49.355Z,4.46
2018-11-02T23:49:06.210Z,4.32
2018-11-02T23:51:59.173Z,4.34
2018-11-02T23:58:27.784Z,4.21
